Clima

HORA PREDICCIÓN TEMPERATURA VIENTO HUMEDAD
2019-12-16 03:00:00 Despejado 7 4.66 0.39
2019-12-16 04:00:00 Despejado 7 5.1 0.44
2019-12-16 05:00:00 Despejado 6 5.56 0.47
2019-12-16 06:00:00 Despejado 6 5.81 0.46
2019-12-16 07:00:00 Despejado 8 5.57 0.4
2019-12-16 08:00:00 Despejado 10 5.11 0.3
2019-12-16 09:00:00 Despejado 14 5.12 0.21
2019-12-16 10:00:00 Despejado 18 5.81 0.12
2019-12-16 11:00:00 Despejado 21 7.06 0.07
2019-12-16 12:00:00 Despejado 24 8.88 0.05
2019-12-16 13:00:00 Despejado 25 11.65 0.04
2019-12-16 14:00:00 Despejado 26 14.91 0.03
2019-12-16 15:00:00 Despejado 26 17.22 0.03
2019-12-16 16:00:00 Despejado 27 18.31 0.02
2019-12-16 17:00:00 Despejado 27 18.45 0.02
2019-12-16 18:00:00 Despejado 26 17.35 0.02
2019-12-16 19:00:00 Despejado 24 14.19 0.04
2019-12-16 20:00:00 Despejado 21 9.84 0.09
2019-12-16 21:00:00 Despejado 18 6.39 0.14
2019-12-16 22:00:00 Despejado 15 4.61 0.19
2019-12-16 23:00:00 Despejado 13 3.69 0.23